sensor_id;sensor_type;location;lat;lon;timestamp;temperature;humidity
41256;DHT22;26989;45.524;10.938;2023-06-14T00:02:02;18.80;99.90
41256;DHT22;26989;45.524;10.938;2023-06-14T00:04:30;18.80;99.90
41256;DHT22;26989;45.524;10.938;2023-06-14T00:06:57;18.90;99.90
41256;DHT22;26989;45.524;10.938;2023-06-14T00:09:24;18.90;99.90
41256;DHT22;26989;45.524;10.938;2023-06-14T00:11:51;18.80;99.90
41256;DHT22;26989;45.524;10.938;2023-06-14T00:14:18;18.80;99.90
41256;DHT22;26989;45.524;10.938;2023-06-14T00:16:45;18.80;99.90
41256;DHT22;26989;45.524;10.938;2023-06-14T00:19:12;18.80;99.90
41256;DHT22;26989;45.524;10.938;2023-06-14T00:21:39;18.70;99.90
41256;DHT22;26989;45.524;10.938;2023-06-14T00:24:07;18.70;99.90
41256;DHT22;26989;45.524;10.938;2023-06-14T00:26:34;18.60;99.90
41256;DHT22;26989;45.524;10.938;2023-06-14T00:29:02;18.50;99.90
41256;DHT22;26989;45.524;10.938;2023-06-14T00:31:29;18.50;99.90
41256;DHT22;26989;45.524;10.938;2023-06-14T00:33:56;18.30;99.90
41256;DHT22;26989;45.524;10.938;2023-06-14T00:36:22;18.30;99.90
41256;DHT22;26989;45.524;10.938;2023-06-14T00:38:49;18.30;99.90
41256;DHT22;26989;45.524;10.938;2023-06-14T00:41:17;18.30;99.90
41256;DHT22;26989;45.524;10.938;2023-06-14T00:43:44;18.30;99.90
41256;DHT22;26989;45.524;10.938;2023-06-14T00:46:11;18.30;99.90
41256;DHT22;26989;45.524;10.938;2023-06-14T00:48:39;18.40;99.90
41256;DHT22;26989;45.524;10.938;2023-06-14T00:51:06;18.30;99.90
41256;DHT22;26989;45.524;10.938;2023-06-14T00:53:33;18.40;99.90
41256;DHT22;26989;45.524;10.938;2023-06-14T00:56:02;18.20;99.90
41256;DHT22;26989;45.524;10.938;2023-06-14T00:58:30;18.30;99.90
41256;DHT22;26989;45.524;10.938;2023-06-14T01:00:57;18.30;99.90
41256;DHT22;26989;45.524;10.938;2023-06-14T01:03:24;18.30;99.90
41256;DHT22;26989;45.524;10.938;2023-06-14T01:05:59;18.30;99.90
41256;DHT22;26989;45.524;10.938;2023-06-14T01:08:47;18.30;99.90
41256;DHT22;26989;45.524;10.938;2023-06-14T01:11:31;18.20;99.90
41256;DHT22;26989;45.524;10.938;2023-06-14T01:14:00;18.20;99.90
41256;DHT22;26989;45.524;10.938;2023-06-14T01:16:29;18.10;99.90
41256;DHT22;26989;45.524;10.938;2023-06-14T01:18:58;17.90;99.90
41256;DHT22;26989;45.524;10.938;2023-06-14T01:21:26;17.90;99.90
41256;DHT22;26989;45.524;10.938;2023-06-14T01:23:55;17.80;99.90
41256;DHT22;26989;45.524;10.938;2023-06-14T01:26:22;17.80;99.90
41256;DHT22;26989;45.524;10.938;2023-06-14T01:28:50;17.70;99.90
41256;DHT22;26989;45.524;10.938;2023-06-14T01:31:20;17.70;99.90
41256;DHT22;26989;45.524;10.938;2023-06-14T01:33:49;17.70;99.90
41256;DHT22;26989;45.524;10.938;2023-06-14T01:36:19;17.70;99.90
41256;DHT22;26989;45.524;10.938;2023-06-14T01:38:47;17.50;99.90
41256;DHT22;26989;45.524;10.938;2023-06-14T01:41:17;17.50;99.90
41256;DHT22;26989;45.524;10.938;2023-06-14T01:43:45;17.40;99.90
41256;DHT22;26989;45.524;10.938;2023-06-14T01:46:13;17.40;99.90
41256;DHT22;26989;45.524;10.938;2023-06-14T01:48:42;17.40;99.90
41256;DHT22;26989;45.524;10.938;2023-06-14T01:51:09;17.50;99.90
41256;DHT22;26989;45.524;10.938;2023-06-14T01:53:36;17.60;99.90
41256;DHT22;26989;45.524;10.938;2023-06-14T01:56:03;17.60;99.90
41256;DHT22;26989;45.524;10.938;2023-06-14T01:58:33;17.50;99.90
41256;DHT22;26989;45.524;10.938;2023-06-14T02:01:00;17.50;99.90
41256;DHT22;26989;45.524;10.938;2023-06-14T02:03:27;17.40;99.90
41256;DHT22;26989;45.524;10.938;2023-06-14T02:05:54;17.30;99.90
41256;DHT22;26989;45.524;10.938;2023-06-14T02:08:22;17.20;99.90
41256;DHT22;26989;45.524;10.938;2023-06-14T02:10:50;17.20;99.90
41256;DHT22;26989;45.524;10.938;2023-06-14T02:13:17;17.20;99.90
41256;DHT22;26989;45.524;10.938;2023-06-14T02:15:44;17.20;99.90
41256;DHT22;26989;45.524;10.938;2023-06-14T02:18:11;17.20;99.90
41256;DHT22;26989;45.524;10.938;2023-06-14T02:20:39;17.20;99.90
41256;DHT22;26989;45.524;10.938;2023-06-14T02:23:06;17.30;99.90
41256;DHT22;26989;45.524;10.938;2023-06-14T02:25:34;17.40;99.90
41256;DHT22;26989;45.524;10.938;2023-06-14T02:28:02;17.40;99.90
41256;DHT22;26989;45.524;10.938;2023-06-14T02:30:29;17.20;99.90
41256;DHT22;26989;45.524;10.938;2023-06-14T02:32:56;17.10;99.90
41256;DHT22;26989;45.524;10.938;2023-06-14T02:35:23;17.10;99.90
41256;DHT22;26989;45.524;10.938;2023-06-14T02:37:53;17.10;99.90
41256;DHT22;26989;45.524;10.938;2023-06-14T02:40:20;17.10;99.90
41256;DHT22;26989;45.524;10.938;2023-06-14T02:42:47;17.10;99.90
41256;DHT22;26989;45.524;10.938;2023-06-14T02:45:14;17.10;99.90
41256;DHT22;26989;45.524;10.938;2023-06-14T02:47:41;17.10;99.90
41256;DHT22;26989;45.524;10.938;2023-06-14T02:50:09;17.00;99.90
41256;DHT22;26989;45.524;10.938;2023-06-14T02:52:36;17.00;99.90
41256;DHT22;26989;45.524;10.938;2023-06-14T02:55:04;17.10;99.90
41256;DHT22;26989;45.524;10.938;2023-06-14T02:57:31;17.20;99.90
41256;DHT22;26989;45.524;10.938;2023-06-14T02:59:58;17.20;99.90
41256;DHT22;26989;45.524;10.938;2023-06-14T03:02:25;17.10;99.90
41256;DHT22;26989;45.524;10.938;2023-06-14T03:04:52;17.00;99.90
41256;DHT22;26989;45.524;10.938;2023-06-14T03:07:18;17.10;99.90
41256;DHT22;26989;45.524;10.938;2023-06-14T03:09:48;17.00;99.90
41256;DHT22;26989;45.524;10.938;2023-06-14T03:12:16;17.00;99.90
41256;DHT22;26989;45.524;10.938;2023-06-14T03:14:43;16.90;99.90
41256;DHT22;26989;45.524;10.938;2023-06-14T03:17:13;16.90;99.90
41256;DHT22;26989;45.524;10.938;2023-06-14T03:19:40;16.90;99.90
41256;DHT22;26989;45.524;10.938;2023-06-14T03:22:08;17.00;99.90
41256;DHT22;26989;45.524;10.938;2023-06-14T03:24:35;17.00;99.90
41256;DHT22;26989;45.524;10.938;2023-06-14T03:27:04;17.00;99.90
41256;DHT22;26989;45.524;10.938;2023-06-14T03:29:31;17.10;99.90
41256;DHT22;26989;45.524;10.938;2023-06-14T03:32:02;17.10;99.90
41256;DHT22;26989;45.524;10.938;2023-06-14T03:34:29;17.20;99.90
41256;DHT22;26989;45.524;10.938;2023-06-14T03:36:57;17.30;99.90
41256;DHT22;26989;45.524;10.938;2023-06-14T03:39:24;17.30;99.90
41256;DHT22;26989;45.524;10.938;2023-06-14T03:41:51;17.40;99.90
41256;DHT22;26989;45.524;10.938;2023-06-14T03:44:19;17.40;99.90
41256;DHT22;26989;45.524;10.938;2023-06-14T03:46:46;17.40;99.90
41256;DHT22;26989;45.524;10.938;2023-06-14T03:49:13;17.40;99.90
41256;DHT22;26989;45.524;10.938;2023-06-14T03:51:40;17.40;99.90
41256;DHT22;26989;45.524;10.938;2023-06-14T03:54:08;17.40;99.90
41256;DHT22;26989;45.524;10.938;2023-06-14T03:56:38;17.50;99.90
41256;DHT22;26989;45.524;10.938;2023-06-14T03:59:05;17.40;99.90
41256;DHT22;26989;45.524;10.938;2023-06-14T04:01:32;17.40;99.90
41256;DHT22;26989;45.524;10.938;2023-06-14T04:04:00;17.40;99.90
41256;DHT22;26989;45.524;10.938;2023-06-14T04:06:28;17.40;99.90
41256;DHT22;26989;45.524;10.938;2023-06-14T04:08:59;17.40;99.90
41256;DHT22;26989;45.524;10.938;2023-06-14T04:11:30;17.40;99.90
41256;DHT22;26989;45.524;10.938;2023-06-14T04:13:58;17.60;99.90
41256;DHT22;26989;45.524;10.938;2023-06-14T04:16:26;17.60;99.90
41256;DHT22;26989;45.524;10.938;2023-06-14T04:18:55;17.70;99.90
41256;DHT22;26989;45.524;10.938;2023-06-14T04:21:22;17.70;99.90
41256;DHT22;26989;45.524;10.938;2023-06-14T04:23:50;17.70;99.90
41256;DHT22;26989;45.524;10.938;2023-06-14T04:26:20;17.70;99.90
41256;DHT22;26989;45.524;10.938;2023-06-14T04:28:50;17.90;99.90
41256;DHT22;26989;45.524;10.938;2023-06-14T04:31:17;17.90;99.90
41256;DHT22;26989;45.524;10.938;2023-06-14T04:33:45;18.20;99.90
41256;DHT22;26989;45.524;10.938;2023-06-14T04:36:13;18.00;99.90
41256;DHT22;26989;45.524;10.938;2023-06-14T04:38:44;17.90;99.90
41256;DHT22;26989;45.524;10.938;2023-06-14T04:41:13;18.00;99.90
41256;DHT22;26989;45.524;10.938;2023-06-14T04:43:39;18.10;99.90
41256;DHT22;26989;45.524;10.938;2023-06-14T04:46:07;18.10;99.90
41256;DHT22;26989;45.524;10.938;2023-06-14T04:48:38;18.10;99.90
41256;DHT22;26989;45.524;10.938;2023-06-14T04:51:08;18.20;99.90
41256;DHT22;26989;45.524;10.938;2023-06-14T04:53:35;18.40;99.90
41256;DHT22;26989;45.524;10.938;2023-06-14T04:56:03;18.40;99.90
41256;DHT22;26989;45.524;10.938;2023-06-14T04:58:30;18.60;99.90
41256;DHT22;26989;45.524;10.938;2023-06-14T05:00:59;18.80;99.90
41256;DHT22;26989;45.524;10.938;2023-06-14T05:03:26;18.80;99.90
41256;DHT22;26989;45.524;10.938;2023-06-14T05:05:57;19.30;99.90
41256;DHT22;26989;45.524;10.938;2023-06-14T05:08:24;19.30;99.90
41256;DHT22;26989;45.524;10.938;2023-06-14T05:10:51;19.50;99.90
41256;DHT22;26989;45.524;10.938;2023-06-14T05:13:18;20.60;99.90
41256;DHT22;26989;45.524;10.938;2023-06-14T05:15:45;20.80;99.90
41256;DHT22;26989;45.524;10.938;2023-06-14T05:18:12;21.20;99.90
41256;DHT22;26989;45.524;10.938;2023-06-14T05:20:41;20.50;99.90
41256;DHT22;26989;45.524;10.938;2023-06-14T05:23:11;20.60;99.90
41256;DHT22;26989;45.524;10.938;2023-06-14T05:25:45;22.00;99.90
41256;DHT22;26989;45.524;10.938;2023-06-14T05:28:12;22.30;99.90
41256;DHT22;26989;45.524;10.938;2023-06-14T05:30:39;21.90;99.90
41256;DHT22;26989;45.524;10.938;2023-06-14T05:33:06;21.20;99.90
41256;DHT22;26989;45.524;10.938;2023-06-14T05:35:33;20.80;99.90
41256;DHT22;26989;45.524;10.938;2023-06-14T05:38:01;20.40;99.90
41256;DHT22;26989;45.524;10.938;2023-06-14T05:40:28;20.00;99.90
41256;DHT22;26989;45.524;10.938;2023-06-14T05:42:55;20.10;99.90
41256;DHT22;26989;45.524;10.938;2023-06-14T05:45:22;20.10;99.90
41256;DHT22;26989;45.524;10.938;2023-06-14T05:47:49;20.00;99.90
41256;DHT22;26989;45.524;10.938;2023-06-14T05:50:17;20.10;99.90
41256;DHT22;26989;45.524;10.938;2023-06-14T05:52:44;20.40;99.90
41256;DHT22;26989;45.524;10.938;2023-06-14T05:55:11;20.40;99.90
41256;DHT22;26989;45.524;10.938;2023-06-14T05:57:39;20.50;99.90
41256;DHT22;26989;45.524;10.938;2023-06-14T06:00:09;20.70;99.90
41256;DHT22;26989;45.524;10.938;2023-06-14T06:02:44;20.60;99.90
41256;DHT22;26989;45.524;10.938;2023-06-14T06:05:16;20.50;99.90
41256;DHT22;26989;45.524;10.938;2023-06-14T06:07:44;20.40;99.90
41256;DHT22;26989;45.524;10.938;2023-06-14T06:10:12;20.40;99.90
41256;DHT22;26989;45.524;10.938;2023-06-14T06:12:38;20.20;99.90
41256;DHT22;26989;45.524;10.938;2023-06-14T06:15:06;20.30;99.90
41256;DHT22;26989;45.524;10.938;2023-06-14T06:17:34;20.40;99.90
41256;DHT22;26989;45.524;10.938;2023-06-14T06:20:20;20.40;99.90
41256;DHT22;26989;45.524;10.938;2023-06-14T06:22:48;20.50;99.90
41256;DHT22;26989;45.524;10.938;2023-06-14T06:25:15;20.40;99.90
41256;DHT22;26989;45.524;10.938;2023-06-14T06:27:44;20.50;99.90
41256;DHT22;26989;45.524;10.938;2023-06-14T06:30:12;20.70;99.90
41256;DHT22;26989;45.524;10.938;2023-06-14T06:32:42;20.70;99.90
41256;DHT22;26989;45.524;10.938;2023-06-14T06:35:09;20.90;99.90
41256;DHT22;26989;45.524;10.938;2023-06-14T06:37:38;21.10;99.90
41256;DHT22;26989;45.524;10.938;2023-06-14T06:40:05;21.20;99.90
41256;DHT22;26989;45.524;10.938;2023-06-14T06:42:32;21.40;99.90
41256;DHT22;26989;45.524;10.938;2023-06-14T06:44:59;21.50;99.90
41256;DHT22;26989;45.524;10.938;2023-06-14T06:47:26;21.60;99.90
41256;DHT22;26989;45.524;10.938;2023-06-14T06:49:53;21.70;99.90
41256;DHT22;26989;45.524;10.938;2023-06-14T06:52:22;21.70;99.90
41256;DHT22;26989;45.524;10.938;2023-06-14T06:54:48;21.70;99.90
41256;DHT22;26989;45.524;10.938;2023-06-14T06:57:17;21.80;99.90
41256;DHT22;26989;45.524;10.938;2023-06-14T06:59:43;21.80;99.90
41256;DHT22;26989;45.524;10.938;2023-06-14T07:02:11;21.90;99.90
41256;DHT22;26989;45.524;10.938;2023-06-14T07:04:38;22.00;99.90
41256;DHT22;26989;45.524;10.938;2023-06-14T07:07:05;22.10;99.90
41256;DHT22;26989;45.524;10.938;2023-06-14T07:09:32;22.20;99.90
41256;DHT22;26989;45.524;10.938;2023-06-14T07:11:59;22.30;99.90
41256;DHT22;26989;45.524;10.938;2023-06-14T07:14:25;22.40;99.90
41256;DHT22;26989;45.524;10.938;2023-06-14T07:16:52;22.60;99.90
41256;DHT22;26989;45.524;10.938;2023-06-14T07:19:19;22.90;99.90
41256;DHT22;26989;45.524;10.938;2023-06-14T07:21:46;23.00;99.90
41256;DHT22;26989;45.524;10.938;2023-06-14T07:24:13;23.10;99.90
41256;DHT22;26989;45.524;10.938;2023-06-14T07:26:40;23.30;99.90
41256;DHT22;26989;45.524;10.938;2023-06-14T07:29:07;23.40;99.90
41256;DHT22;26989;45.524;10.938;2023-06-14T07:31:34;23.70;99.90
41256;DHT22;26989;45.524;10.938;2023-06-14T07:34:01;23.90;99.90
41256;DHT22;26989;45.524;10.938;2023-06-14T07:36:28;24.10;99.90
41256;DHT22;26989;45.524;10.938;2023-06-14T07:38:55;24.30;99.90
41256;DHT22;26989;45.524;10.938;2023-06-14T07:41:22;24.30;99.90
41256;DHT22;26989;45.524;10.938;2023-06-14T07:43:49;24.30;99.90
41256;DHT22;26989;45.524;10.938;2023-06-14T07:46:16;24.60;99.90
41256;DHT22;26989;45.524;10.938;2023-06-14T07:48:43;24.80;99.90
41256;DHT22;26989;45.524;10.938;2023-06-14T07:51:10;25.10;99.90
41256;DHT22;26989;45.524;10.938;2023-06-14T07:53:37;25.50;99.90
41256;DHT22;26989;45.524;10.938;2023-06-14T07:56:04;25.60;99.90
41256;DHT22;26989;45.524;10.938;2023-06-14T07:58:38;25.80;99.90
41256;DHT22;26989;45.524;10.938;2023-06-14T08:01:05;25.90;99.90
41256;DHT22;26989;45.524;10.938;2023-06-14T08:03:34;25.90;99.90
41256;DHT22;26989;45.524;10.938;2023-06-14T08:06:01;25.90;99.90
41256;DHT22;26989;45.524;10.938;2023-06-14T08:08:28;26.00;99.90
41256;DHT22;26989;45.524;10.938;2023-06-14T08:10:55;26.20;99.90
41256;DHT22;26989;45.524;10.938;2023-06-14T08:13:22;26.30;99.90
41256;DHT22;26989;45.524;10.938;2023-06-14T08:15:49;26.60;99.90
41256;DHT22;26989;45.524;10.938;2023-06-14T08:18:17;26.60;99.30
41256;DHT22;26989;45.524;10.938;2023-06-14T08:20:44;26.60;99.30
41256;DHT22;26989;45.524;10.938;2023-06-14T08:23:11;26.70;98.70
41256;DHT22;26989;45.524;10.938;2023-06-14T08:25:38;26.80;99.20
41256;DHT22;26989;45.524;10.938;2023-06-14T08:28:05;27.00;98.40
41256;DHT22;26989;45.524;10.938;2023-06-14T08:30:32;26.90;98.40
41256;DHT22;26989;45.524;10.938;2023-06-14T08:32:59;27.00;98.10
41256;DHT22;26989;45.524;10.938;2023-06-14T08:35:42;27.20;98.10
41256;DHT22;26989;45.524;10.938;2023-06-14T08:38:10;27.20;98.10
41256;DHT22;26989;45.524;10.938;2023-06-14T08:40:40;27.20;97.70
41256;DHT22;26989;45.524;10.938;2023-06-14T08:43:08;27.30;97.60
41256;DHT22;26989;45.524;10.938;2023-06-14T08:45:36;26.90;97.60
41256;DHT22;26989;45.524;10.938;2023-06-14T08:48:03;27.20;97.40
41256;DHT22;26989;45.524;10.938;2023-06-14T08:50:32;27.30;96.90
41256;DHT22;26989;45.524;10.938;2023-06-14T08:53:02;27.20;96.70
41256;DHT22;26989;45.524;10.938;2023-06-14T08:55:31;26.90;96.70
41256;DHT22;26989;45.524;10.938;2023-06-14T08:58:03;26.40;97.10
41256;DHT22;26989;45.524;10.938;2023-06-14T09:00:31;26.10;97.70
41256;DHT22;26989;45.524;10.938;2023-06-14T09:03:00;25.90;97.70
41256;DHT22;26989;45.524;10.938;2023-06-14T09:05:28;25.80;97.90
41256;DHT22;26989;45.524;10.938;2023-06-14T09:07:55;25.80;98.00
41256;DHT22;26989;45.524;10.938;2023-06-14T09:10:25;25.60;97.90
41256;DHT22;26989;45.524;10.938;2023-06-14T09:12:53;25.60;97.90
41256;DHT22;26989;45.524;10.938;2023-06-14T09:15:20;25.60;98.00
41256;DHT22;26989;45.524;10.938;2023-06-14T09:17:47;25.40;98.30
41256;DHT22;26989;45.524;10.938;2023-06-14T09:20:15;25.50;98.00
41256;DHT22;26989;45.524;10.938;2023-06-14T09:22:46;25.40;98.50
41256;DHT22;26989;45.524;10.938;2023-06-14T09:25:13;25.40;98.10
41256;DHT22;26989;45.524;10.938;2023-06-14T09:27:54;25.30;98.00
41256;DHT22;26989;45.524;10.938;2023-06-14T09:30:21;25.40;97.80
41256;DHT22;26989;45.524;10.938;2023-06-14T09:32:48;25.40;97.80
41256;DHT22;26989;45.524;10.938;2023-06-14T09:35:17;25.60;97.60
41256;DHT22;26989;45.524;10.938;2023-06-14T09:37:44;25.90;97.20
41256;DHT22;26989;45.524;10.938;2023-06-14T09:40:11;25.60;96.80
41256;DHT22;26989;45.524;10.938;2023-06-14T09:42:38;25.50;97.10
41256;DHT22;26989;45.524;10.938;2023-06-14T09:45:07;25.80;97.30
41256;DHT22;26989;45.524;10.938;2023-06-14T09:47:34;26.10;97.10
41256;DHT22;26989;45.524;10.938;2023-06-14T09:50:02;26.30;96.90
41256;DHT22;26989;45.524;10.938;2023-06-14T09:52:30;26.70;96.70
41256;DHT22;26989;45.524;10.938;2023-06-14T09:54:59;25.90;96.40
41256;DHT22;26989;45.524;10.938;2023-06-14T09:57:27;25.70;96.90
41256;DHT22;26989;45.524;10.938;2023-06-14T09:59:58;26.00;97.10
41256;DHT22;26989;45.524;10.938;2023-06-14T10:02:36;26.50;96.60
41256;DHT22;26989;45.524;10.938;2023-06-14T10:05:06;26.60;95.60
41256;DHT22;26989;45.524;10.938;2023-06-14T10:07:40;26.60;95.90
41256;DHT22;26989;45.524;10.938;2023-06-14T10:10:07;27.00;95.70
41256;DHT22;26989;45.524;10.938;2023-06-14T10:12:34;26.70;95.20
41256;DHT22;26989;45.524;10.938;2023-06-14T10:15:03;27.00;95.20
41256;DHT22;26989;45.524;10.938;2023-06-14T10:20:27;26.40;95.20
41256;DHT22;26989;45.524;10.938;2023-06-14T10:23:18;26.60;95.50
41256;DHT22;26989;45.524;10.938;2023-06-14T10:25:50;26.90;95.30
41256;DHT22;26989;45.524;10.938;2023-06-14T10:28:18;27.00;95.10
41256;DHT22;26989;45.524;10.938;2023-06-14T10:31:11;26.40;95.50
41256;DHT22;26989;45.524;10.938;2023-06-14T10:33:49;26.80;95.40
41256;DHT22;26989;45.524;10.938;2023-06-14T10:39:10;26.90;95.00
41256;DHT22;26989;45.524;10.938;2023-06-14T10:41:38;27.50;94.40
41256;DHT22;26989;45.524;10.938;2023-06-14T10:46:49;27.40;94.20
41256;DHT22;26989;45.524;10.938;2023-06-14T10:49:17;27.30;94.70
41256;DHT22;26989;45.524;10.938;2023-06-14T10:51:50;27.30;94.10
41256;DHT22;26989;45.524;10.938;2023-06-14T10:54:22;27.30;94.30
41256;DHT22;26989;45.524;10.938;2023-06-14T10:56:52;27.20;94.20
41256;DHT22;26989;45.524;10.938;2023-06-14T10:59:20;27.20;94.40
41256;DHT22;26989;45.524;10.938;2023-06-14T11:04:52;26.90;94.90
41256;DHT22;26989;45.524;10.938;2023-06-14T11:10:38;27.20;94.30
41256;DHT22;26989;45.524;10.938;2023-06-14T11:13:07;27.30;94.00
41256;DHT22;26989;45.524;10.938;2023-06-14T11:15:36;27.40;94.00
41256;DHT22;26989;45.524;10.938;2023-06-14T11:18:05;27.00;93.70
41256;DHT22;26989;45.524;10.938;2023-06-14T11:20:34;26.90;94.10
41256;DHT22;26989;45.524;10.938;2023-06-14T11:23:03;26.70;93.90
41256;DHT22;26989;45.524;10.938;2023-06-14T11:25:30;26.70;94.00
41256;DHT22;26989;45.524;10.938;2023-06-14T11:27:57;26.40;94.20
41256;DHT22;26989;45.524;10.938;2023-06-14T11:30:25;26.20;94.80
41256;DHT22;26989;45.524;10.938;2023-06-14T11:32:54;26.40;94.70
41256;DHT22;26989;45.524;10.938;2023-06-14T11:35:25;26.20;95.00
41256;DHT22;26989;45.524;10.938;2023-06-14T11:37:54;26.10;95.00
41256;DHT22;26989;45.524;10.938;2023-06-14T11:40:26;25.80;95.20
41256;DHT22;26989;45.524;10.938;2023-06-14T11:43:00;25.70;95.20
41256;DHT22;26989;45.524;10.938;2023-06-14T11:45:28;25.70;95.40
41256;DHT22;26989;45.524;10.938;2023-06-14T11:47:57;25.70;94.30
41256;DHT22;26989;45.524;10.938;2023-06-14T11:50:24;25.80;94.90
41256;DHT22;26989;45.524;10.938;2023-06-14T11:52:55;25.70;94.60
41256;DHT22;26989;45.524;10.938;2023-06-14T11:55:23;25.80;94.90
41256;DHT22;26989;45.524;10.938;2023-06-14T11:57:52;25.90;94.10
41256;DHT22;26989;45.524;10.938;2023-06-14T12:00:24;26.00;94.40
41256;DHT22;26989;45.524;10.938;2023-06-14T12:02:55;26.10;94.20
41256;DHT22;26989;45.524;10.938;2023-06-14T12:05:25;26.40;93.40
41256;DHT22;26989;45.524;10.938;2023-06-14T12:08:03;26.20;93.20
41256;DHT22;26989;45.524;10.938;2023-06-14T12:10:40;26.40;92.20
41256;DHT22;26989;45.524;10.938;2023-06-14T12:13:08;26.60;91.50
41256;DHT22;26989;45.524;10.938;2023-06-14T12:15:35;26.80;91.30
41256;DHT22;26989;45.524;10.938;2023-06-14T12:18:05;26.90;91.10
41256;DHT22;26989;45.524;10.938;2023-06-14T12:20:34;27.10;88.10
41256;DHT22;26989;45.524;10.938;2023-06-14T12:23:04;26.60;89.90
41256;DHT22;26989;45.524;10.938;2023-06-14T12:25:33;26.20;90.70
41256;DHT22;26989;45.524;10.938;2023-06-14T12:28:08;26.80;90.60
41256;DHT22;26989;45.524;10.938;2023-06-14T12:30:37;27.30;90.10
41256;DHT22;26989;45.524;10.938;2023-06-14T12:33:04;27.50;90.10
41256;DHT22;26989;45.524;10.938;2023-06-14T12:35:32;27.70;90.30
41256;DHT22;26989;45.524;10.938;2023-06-14T12:38:00;27.40;89.70
41256;DHT22;26989;45.524;10.938;2023-06-14T12:40:27;27.40;89.70
41256;DHT22;26989;45.524;10.938;2023-06-14T12:42:53;27.40;90.30
41256;DHT22;26989;45.524;10.938;2023-06-14T12:45:20;26.60;91.20
41256;DHT22;26989;45.524;10.938;2023-06-14T12:47:47;27.10;90.70
41256;DHT22;26989;45.524;10.938;2023-06-14T12:50:14;27.30;90.90
41256;DHT22;26989;45.524;10.938;2023-06-14T12:52:42;27.30;90.10
41256;DHT22;26989;45.524;10.938;2023-06-14T12:55:09;27.30;90.70
41256;DHT22;26989;45.524;10.938;2023-06-14T12:57:36;27.30;90.70
41256;DHT22;26989;45.524;10.938;2023-06-14T13:00:05;27.20;90.90
41256;DHT22;26989;45.524;10.938;2023-06-14T13:02:35;27.40;90.70
41256;DHT22;26989;45.524;10.938;2023-06-14T13:05:02;27.30;91.40
41256;DHT22;26989;45.524;10.938;2023-06-14T13:07:30;27.40;90.70
41256;DHT22;26989;45.524;10.938;2023-06-14T13:09:57;27.50;90.80
41256;DHT22;26989;45.524;10.938;2023-06-14T13:12:24;27.60;90.60
41256;DHT22;26989;45.524;10.938;2023-06-14T13:14:51;27.70;90.80
41256;DHT22;26989;45.524;10.938;2023-06-14T13:17:18;27.90;90.70
41256;DHT22;26989;45.524;10.938;2023-06-14T13:19:45;28.00;90.50
41256;DHT22;26989;45.524;10.938;2023-06-14T13:22:12;28.00;90.10
41256;DHT22;26989;45.524;10.938;2023-06-14T13:24:41;28.10;89.50
41256;DHT22;26989;45.524;10.938;2023-06-14T13:27:08;28.10;89.90
41256;DHT22;26989;45.524;10.938;2023-06-14T13:29:35;28.20;90.20
41256;DHT22;26989;45.524;10.938;2023-06-14T13:32:03;28.10;89.60
41256;DHT22;26989;45.524;10.938;2023-06-14T13:34:30;28.10;89.10
41256;DHT22;26989;45.524;10.938;2023-06-14T13:37:00;28.10;89.60
41256;DHT22;26989;45.524;10.938;2023-06-14T13:39:27;27.90;89.50
41256;DHT22;26989;45.524;10.938;2023-06-14T13:41:54;27.70;89.70
41256;DHT22;26989;45.524;10.938;2023-06-14T13:44:21;26.40;91.00
41256;DHT22;26989;45.524;10.938;2023-06-14T13:46:48;25.60;91.90
41256;DHT22;26989;45.524;10.938;2023-06-14T13:49:15;25.60;91.50
41256;DHT22;26989;45.524;10.938;2023-06-14T13:51:42;26.40;92.20
41256;DHT22;26989;45.524;10.938;2023-06-14T13:54:08;27.00;92.30
41256;DHT22;26989;45.524;10.938;2023-06-14T13:56:35;27.30;90.90
41256;DHT22;26989;45.524;10.938;2023-06-14T13:59:03;27.60;91.60
41256;DHT22;26989;45.524;10.938;2023-06-14T14:01:30;28.10;90.90
41256;DHT22;26989;45.524;10.938;2023-06-14T14:03:57;28.20;90.30
41256;DHT22;26989;45.524;10.938;2023-06-14T14:06:25;28.30;90.00
41256;DHT22;26989;45.524;10.938;2023-06-14T14:08:52;28.60;89.70
41256;DHT22;26989;45.524;10.938;2023-06-14T14:11:19;28.80;88.60
41256;DHT22;26989;45.524;10.938;2023-06-14T14:13:47;29.10;87.80
41256;DHT22;26989;45.524;10.938;2023-06-14T14:16:14;29.10;87.30
41256;DHT22;26989;45.524;10.938;2023-06-14T14:18:41;28.80;87.00
41256;DHT22;26989;45.524;10.938;2023-06-14T14:21:08;28.90;87.00
41256;DHT22;26989;45.524;10.938;2023-06-14T14:23:36;29.10;87.40
41256;DHT22;26989;45.524;10.938;2023-06-14T14:26:05;27.90;87.20
41256;DHT22;26989;45.524;10.938;2023-06-14T14:28:32;28.40;86.90
41256;DHT22;26989;45.524;10.938;2023-06-14T14:31:00;28.30;85.70
41256;DHT22;26989;45.524;10.938;2023-06-14T14:33:27;28.30;85.30
41256;DHT22;26989;45.524;10.938;2023-06-14T14:35:54;28.20;86.10
41256;DHT22;26989;45.524;10.938;2023-06-14T14:38:21;28.50;85.70
41256;DHT22;26989;45.524;10.938;2023-06-14T14:40:48;28.60;85.00
41256;DHT22;26989;45.524;10.938;2023-06-14T14:43:15;28.60;85.00
41256;DHT22;26989;45.524;10.938;2023-06-14T14:45:42;28.70;84.70
41256;DHT22;26989;45.524;10.938;2023-06-14T14:48:09;28.30;84.50
41256;DHT22;26989;45.524;10.938;2023-06-14T14:50:36;28.40;85.40
41256;DHT22;26989;45.524;10.938;2023-06-14T14:53:05;28.10;85.50
41256;DHT22;26989;45.524;10.938;2023-06-14T14:55:32;27.20;87.40
41256;DHT22;26989;45.524;10.938;2023-06-14T14:58:01;27.80;86.70
41256;DHT22;26989;45.524;10.938;2023-06-14T15:00:29;27.20;88.00
41256;DHT22;26989;45.524;10.938;2023-06-14T15:02:56;27.10;89.20
41256;DHT22;26989;45.524;10.938;2023-06-14T15:05:23;27.80;86.70
41256;DHT22;26989;45.524;10.938;2023-06-14T15:07:50;28.30;85.70
41256;DHT22;26989;45.524;10.938;2023-06-14T15:10:17;28.60;84.00
41256;DHT22;26989;45.524;10.938;2023-06-14T15:12:44;28.60;84.80
41256;DHT22;26989;45.524;10.938;2023-06-14T15:15:11;28.40;84.30
41256;DHT22;26989;45.524;10.938;2023-06-14T15:17:38;28.50;84.20
41256;DHT22;26989;45.524;10.938;2023-06-14T15:20:05;28.20;85.60
41256;DHT22;26989;45.524;10.938;2023-06-14T15:22:32;28.60;85.00
41256;DHT22;26989;45.524;10.938;2023-06-14T15:24:59;28.80;84.40
41256;DHT22;26989;45.524;10.938;2023-06-14T15:27:26;28.70;84.90
41256;DHT22;26989;45.524;10.938;2023-06-14T15:29:54;28.50;84.70
41256;DHT22;26989;45.524;10.938;2023-06-14T15:32:21;29.10;84.70
41256;DHT22;26989;45.524;10.938;2023-06-14T15:34:48;29.10;84.60
41256;DHT22;26989;45.524;10.938;2023-06-14T15:37:15;28.00;84.70